sensor_id;sensor_type;location;lat;lon;timestamp;temperature;humidity
45137;DHT22;30894;51.740;19.498;2023-05-29T00:13:10;4.80;58.70
45137;DHT22;30894;51.740;19.498;2023-05-29T00:16:11;4.50;58.90
45137;DHT22;30894;51.740;19.498;2023-05-29T00:19:26;4.40;58.90
45137;DHT22;30894;51.740;19.498;2023-05-29T00:25:31;4.30;58.90
45137;DHT22;30894;51.740;19.498;2023-05-29T00:32:57;4.20;58.90
45137;DHT22;30894;51.740;19.498;2023-05-29T00:36:34;4.10;58.90
45137;DHT22;30894;51.740;19.498;2023-05-29T00:43:08;4.00;58.90
45137;DHT22;30894;51.740;19.498;2023-05-29T00:49:22;4.00;58.90
45137;DHT22;30894;51.740;19.498;2023-05-29T00:57:19;4.00;58.70
45137;DHT22;30894;51.740;19.498;2023-05-29T01:00:47;3.90;58.70
45137;DHT22;30894;51.740;19.498;2023-05-29T01:10:56;3.80;58.90
45137;DHT22;30894;51.740;19.498;2023-05-29T01:23:49;3.80;58.80
45137;DHT22;30894;51.740;19.498;2023-05-29T01:29:43;3.60;59.00
45137;DHT22;30894;51.740;19.498;2023-05-29T01:33:05;3.60;59.00
45137;DHT22;30894;51.740;19.498;2023-05-29T01:43:38;3.60;58.90
45137;DHT22;30894;51.740;19.498;2023-05-29T01:54:29;3.50;58.90
45137;DHT22;30894;51.740;19.498;2023-05-29T01:57:30;3.40;58.90
45137;DHT22;30894;51.740;19.498;2023-05-29T02:01:36;3.40;59.00
45137;DHT22;30894;51.740;19.498;2023-05-29T02:04:41;3.30;59.10
45137;DHT22;30894;51.740;19.498;2023-05-29T02:13:04;3.30;58.90
45137;DHT22;30894;51.740;19.498;2023-05-29T02:16:03;3.20;58.80
45137;DHT22;30894;51.740;19.498;2023-05-29T02:18:46;3.20;58.70
45137;DHT22;30894;51.740;19.498;2023-05-29T02:29:00;3.10;58.90
45137;DHT22;30894;51.740;19.498;2023-05-29T02:32:21;3.00;59.00
45137;DHT22;30894;51.740;19.498;2023-05-29T02:36:11;3.00;59.20
45137;DHT22;30894;51.740;19.498;2023-05-29T02:46:35;2.90;59.20
45137;DHT22;30894;51.740;19.498;2023-05-29T02:50:36;2.90;59.30
45137;DHT22;30894;51.740;19.498;2023-05-29T02:53:40;2.90;59.30
45137;DHT22;30894;51.740;19.498;2023-05-29T02:57:23;2.90;59.40
45137;DHT22;30894;51.740;19.498;2023-05-29T03:04:47;2.90;59.20
45137;DHT22;30894;51.740;19.498;2023-05-29T03:08:32;3.00;59.20
45137;DHT22;30894;51.740;19.498;2023-05-29T03:11:31;3.00;59.00
45137;DHT22;30894;51.740;19.498;2023-05-29T03:15:10;3.10;59.00
45137;DHT22;30894;51.740;19.498;2023-05-29T03:22:19;3.30;58.70
45137;DHT22;30894;51.740;19.498;2023-05-29T03:25:29;3.50;58.60
45137;DHT22;30894;51.740;19.498;2023-05-29T03:29:10;3.60;58.40
45137;DHT22;30894;51.740;19.498;2023-05-29T03:33:02;3.70;58.30
45137;DHT22;30894;51.740;19.498;2023-05-29T03:36:15;3.80;58.10
45137;DHT22;30894;51.740;19.498;2023-05-29T03:39:59;3.90;58.10
45137;DHT22;30894;51.740;19.498;2023-05-29T03:43:01;4.00;58.00
45137;DHT22;30894;51.740;19.498;2023-05-29T03:46:03;4.20;57.80
45137;DHT22;30894;51.740;19.498;2023-05-29T04:05:40;4.80;57.20
45137;DHT22;30894;51.740;19.498;2023-05-29T04:08:37;5.00;57.10
45137;DHT22;30894;51.740;19.498;2023-05-29T04:11:59;5.10;57.00
45137;DHT22;30894;51.740;19.498;2023-05-29T04:15:37;5.30;56.80
45137;DHT22;30894;51.740;19.498;2023-05-29T04:18:43;5.60;56.40
45137;DHT22;30894;51.740;19.498;2023-05-29T04:21:50;6.10;56.00
45137;DHT22;30894;51.740;19.498;2023-05-29T04:25:31;6.60;55.30
45137;DHT22;30894;51.740;19.498;2023-05-29T04:29:24;7.30;54.30
45137;DHT22;30894;51.740;19.498;2023-05-29T04:32:48;8.10;53.40
45137;DHT22;30894;51.740;19.498;2023-05-29T04:40:46;9.40;52.00
45137;DHT22;30894;51.740;19.498;2023-05-29T04:43:45;10.10;51.40
45137;DHT22;30894;51.740;19.498;2023-05-29T04:51:17;11.10;50.50
45137;DHT22;30894;51.740;19.498;2023-05-29T04:58:17;12.50;49.40
45137;DHT22;30894;51.740;19.498;2023-05-29T05:05:55;13.60;48.60
45137;DHT22;30894;51.740;19.498;2023-05-29T05:09:04;14.50;47.80
45137;DHT22;30894;51.740;19.498;2023-05-29T05:15:36;15.80;46.80
45137;DHT22;30894;51.740;19.498;2023-05-29T05:21:53;17.40;45.40
45137;DHT22;30894;51.740;19.498;2023-05-29T05:27:44;18.70;44.30
45137;DHT22;30894;51.740;19.498;2023-05-29T05:34:09;19.90;43.30
45137;DHT22;30894;51.740;19.498;2023-05-29T05:39:23;21.10;42.60
45137;DHT22;30894;51.740;19.498;2023-05-29T05:42:45;21.70;42.30
45137;DHT22;30894;51.740;19.498;2023-05-29T05:45:50;22.30;42.00
45137;DHT22;30894;51.740;19.498;2023-05-29T05:48:23;22.80;41.80
45137;DHT22;30894;51.740;19.498;2023-05-29T05:50:58;23.30;41.50
45137;DHT22;30894;51.740;19.498;2023-05-29T05:53:32;23.80;41.30
45137;DHT22;30894;51.740;19.498;2023-05-29T05:56:03;24.30;41.10
45137;DHT22;30894;51.740;19.498;2023-05-29T05:58:37;24.70;41.00
45137;DHT22;30894;51.740;19.498;2023-05-29T06:01:05;25.20;40.80
45137;DHT22;30894;51.740;19.498;2023-05-29T06:03:36;25.60;40.70
45137;DHT22;30894;51.740;19.498;2023-05-29T06:06:05;26.00;40.60
45137;DHT22;30894;51.740;19.498;2023-05-29T06:08:45;26.40;40.50
45137;DHT22;30894;51.740;19.498;2023-05-29T06:11:21;26.80;40.40
45137;DHT22;30894;51.740;19.498;2023-05-29T06:13:51;27.40;40.40
45137;DHT22;30894;51.740;19.498;2023-05-29T06:16:19;27.70;40.10
45137;DHT22;30894;51.740;19.498;2023-05-29T06:18:45;28.10;40.10
45137;DHT22;30894;51.740;19.498;2023-05-29T06:21:12;28.50;40.00
45137;DHT22;30894;51.740;19.498;2023-05-29T06:23:42;28.80;39.90
45137;DHT22;30894;51.740;19.498;2023-05-29T06:26:23;29.10;39.80
45137;DHT22;30894;51.740;19.498;2023-05-29T06:28:54;29.60;39.90
45137;DHT22;30894;51.740;19.498;2023-05-29T06:31:21;29.90;39.70
45137;DHT22;30894;51.740;19.498;2023-05-29T06:33:46;30.20;39.60
45137;DHT22;30894;51.740;19.498;2023-05-29T06:36:13;30.50;39.60
45137;DHT22;30894;51.740;19.498;2023-05-29T06:38:39;30.80;39.50
45137;DHT22;30894;51.740;19.498;2023-05-29T06:41:05;31.10;39.40
45137;DHT22;30894;51.740;19.498;2023-05-29T06:43:41;31.40;39.30
45137;DHT22;30894;51.740;19.498;2023-05-29T06:46:16;31.80;39.20
45137;DHT22;30894;51.740;19.498;2023-05-29T06:48:42;32.10;39.10
45137;DHT22;30894;51.740;19.498;2023-05-29T06:51:37;32.40;39.10
45137;DHT22;30894;51.740;19.498;2023-05-29T06:54:31;32.70;39.00
45137;DHT22;30894;51.740;19.498;2023-05-29T06:56:57;33.10;38.80
45137;DHT22;30894;51.740;19.498;2023-05-29T06:59:52;33.40;38.60
45137;DHT22;30894;51.740;19.498;2023-05-29T07:02:43;33.70;38.70
45137;DHT22;30894;51.740;19.498;2023-05-29T07:05:29;33.90;38.60
45137;DHT22;30894;51.740;19.498;2023-05-29T07:08:17;34.10;38.50
45137;DHT22;30894;51.740;19.498;2023-05-29T07:10:45;34.40;38.40
45137;DHT22;30894;51.740;19.498;2023-05-29T07:13:21;34.70;38.40
45137;DHT22;30894;51.740;19.498;2023-05-29T07:15:53;34.90;38.30
45137;DHT22;30894;51.740;19.498;2023-05-29T07:18:43;35.10;38.30
45137;DHT22;30894;51.740;19.498;2023-05-29T07:21:11;35.30;38.20
45137;DHT22;30894;51.740;19.498;2023-05-29T07:23:43;35.50;38.10
45137;DHT22;30894;51.740;19.498;2023-05-29T07:26:14;35.60;38.00
45137;DHT22;30894;51.740;19.498;2023-05-29T07:28:47;35.90;38.00
45137;DHT22;30894;51.740;19.498;2023-05-29T07:31:13;36.10;37.90
45137;DHT22;30894;51.740;19.498;2023-05-29T07:34:10;36.30;37.80
45137;DHT22;30894;51.740;19.498;2023-05-29T07:36:43;36.40;37.70
45137;DHT22;30894;51.740;19.498;2023-05-29T07:39:24;36.60;37.70
45137;DHT22;30894;51.740;19.498;2023-05-29T07:41:53;36.90;37.50
45137;DHT22;30894;51.740;19.498;2023-05-29T07:44:23;37.20;37.50
45137;DHT22;30894;51.740;19.498;2023-05-29T07:46:57;37.40;37.30
45137;DHT22;30894;51.740;19.498;2023-05-29T07:49:41;37.70;37.20
45137;DHT22;30894;51.740;19.498;2023-05-29T07:52:08;37.90;37.00
45137;DHT22;30894;51.740;19.498;2023-05-29T07:54:34;38.20;37.00
45137;DHT22;30894;51.740;19.498;2023-05-29T07:57:00;38.40;36.80
45137;DHT22;30894;51.740;19.498;2023-05-29T07:59:31;38.20;36.60
45137;DHT22;30894;51.740;19.498;2023-05-29T08:01:59;38.00;36.80
45137;DHT22;30894;51.740;19.498;2023-05-29T08:04:28;37.60;37.00
45137;DHT22;30894;51.740;19.498;2023-05-29T08:06:54;37.70;37.10
45137;DHT22;30894;51.740;19.498;2023-05-29T08:09:21;37.80;37.00
45137;DHT22;30894;51.740;19.498;2023-05-29T08:11:47;37.70;36.90
45137;DHT22;30894;51.740;19.498;2023-05-29T08:14:14;37.60;36.90
45137;DHT22;30894;51.740;19.498;2023-05-29T08:16:43;38.10;36.80
45137;DHT22;30894;51.740;19.498;2023-05-29T08:19:10;38.70;36.50
45137;DHT22;30894;51.740;19.498;2023-05-29T08:21:36;39.20;36.20
45137;DHT22;30894;51.740;19.498;2023-05-29T08:24:04;39.40;36.00
45137;DHT22;30894;51.740;19.498;2023-05-29T08:26:31;39.60;35.90
45137;DHT22;30894;51.740;19.498;2023-05-29T08:28:57;39.80;35.70
45137;DHT22;30894;51.740;19.498;2023-05-29T08:31:26;40.20;35.50
45137;DHT22;30894;51.740;19.498;2023-05-29T08:33:53;40.40;35.40
45137;DHT22;30894;51.740;19.498;2023-05-29T08:36:22;40.40;35.40
45137;DHT22;30894;51.740;19.498;2023-05-29T08:38:51;40.40;35.40
45137;DHT22;30894;51.740;19.498;2023-05-29T08:41:30;40.40;35.40
45137;DHT22;30894;51.740;19.498;2023-05-29T08:44:03;40.60;35.30
45137;DHT22;30894;51.740;19.498;2023-05-29T08:46:34;40.80;35.20
45137;DHT22;30894;51.740;19.498;2023-05-29T08:49:01;41.10;35.10
45137;DHT22;30894;51.740;19.498;2023-05-29T08:51:32;41.00;34.90
45137;DHT22;30894;51.740;19.498;2023-05-29T08:54:40;40.90;34.90
45137;DHT22;30894;51.740;19.498;2023-05-29T09:00:54;41.20;34.80
45137;DHT22;30894;51.740;19.498;2023-05-29T09:04:09;41.80;34.60
45137;DHT22;30894;51.740;19.498;2023-05-29T09:07:20;42.10;34.30
45137;DHT22;30894;51.740;19.498;2023-05-29T09:10:32;42.20;34.40
45137;DHT22;30894;51.740;19.498;2023-05-29T09:17:12;42.90;34.10
45137;DHT22;30894;51.740;19.498;2023-05-29T09:20:27;43.20;33.90
45137;DHT22;30894;51.740;19.498;2023-05-29T09:23:58;43.50;33.70
45137;DHT22;30894;51.740;19.498;2023-05-29T09:27:10;43.70;33.80
45137;DHT22;30894;51.740;19.498;2023-05-29T09:30:52;43.70;34.40
45137;DHT22;30894;51.740;19.498;2023-05-29T09:34:09;43.50;33.70
45137;DHT22;30894;51.740;19.498;2023-05-29T09:37:31;43.50;33.70
45137;DHT22;30894;51.740;19.498;2023-05-29T09:40:45;43.20;33.90
45137;DHT22;30894;51.740;19.498;2023-05-29T09:44:07;43.00;33.90
45137;DHT22;30894;51.740;19.498;2023-05-29T09:46:45;43.30;34.00
45137;DHT22;30894;51.740;19.498;2023-05-29T09:50:23;43.40;33.70
45137;DHT22;30894;51.740;19.498;2023-05-29T10:12:22;43.70;33.20
45137;DHT22;30894;51.740;19.498;2023-05-29T10:15:30;43.50;33.40
45137;DHT22;30894;51.740;19.498;2023-05-29T10:18:53;43.80;33.30
45137;DHT22;30894;51.740;19.498;2023-05-29T10:22:25;43.90;33.10
45137;DHT22;30894;51.740;19.498;2023-05-29T10:36:41;44.10;33.00
45137;DHT22;30894;51.740;19.498;2023-05-29T10:40:14;44.60;32.70
45137;DHT22;30894;51.740;19.498;2023-05-29T10:43:38;45.30;32.60
45137;DHT22;30894;51.740;19.498;2023-05-29T10:47:29;45.90;32.40
45137;DHT22;30894;51.740;19.498;2023-05-29T11:01:22;44.20;32.70
45137;DHT22;30894;51.740;19.498;2023-05-29T11:04:30;44.00;32.70
45137;DHT22;30894;51.740;19.498;2023-05-29T11:10:46;43.90;32.90
45137;DHT22;30894;51.740;19.498;2023-05-29T11:20:56;45.10;32.20
45137;DHT22;30894;51.740;19.498;2023-05-29T11:24:35;45.30;32.20
45137;DHT22;30894;51.740;19.498;2023-05-29T11:30:55;45.50;31.70
45137;DHT22;30894;51.740;19.498;2023-05-29T11:37:26;45.50;31.80
45137;DHT22;30894;51.740;19.498;2023-05-29T11:43:26;46.20;31.60
45137;DHT22;30894;51.740;19.498;2023-05-29T11:46:40;46.80;31.20
45137;DHT22;30894;51.740;19.498;2023-05-29T11:49:40;47.30;31.10
45137;DHT22;30894;51.740;19.498;2023-05-29T11:52:28;47.40;31.00
45137;DHT22;30894;51.740;19.498;2023-05-29T12:13:03;46.30;31.20
45137;DHT22;30894;51.740;19.498;2023-05-29T12:16:39;46.60;31.10
45137;DHT22;30894;51.740;19.498;2023-05-29T12:19:56;46.70;31.10
45137;DHT22;30894;51.740;19.498;2023-05-29T12:47:28;45.50;31.00
45137;DHT22;30894;51.740;19.498;2023-05-29T12:50:40;45.30;31.00
45137;DHT22;30894;51.740;19.498;2023-05-29T12:58:04;45.50;31.10
45137;DHT22;30894;51.740;19.498;2023-05-29T13:01:01;45.40;30.80
45137;DHT22;30894;51.740;19.498;2023-05-29T13:10:47;42.80;31.70
45137;DHT22;30894;51.740;19.498;2023-05-29T13:17:14;42.80;31.50
45137;DHT22;30894;51.740;19.498;2023-05-29T13:19:59;43.20;31.50
45137;DHT22;30894;51.740;19.498;2023-05-29T13:23:35;43.40;31.20
45137;DHT22;30894;51.740;19.498;2023-05-29T13:26:55;43.10;31.20
45137;DHT22;30894;51.740;19.498;2023-05-29T13:30:14;43.10;31.20
45137;DHT22;30894;51.740;19.498;2023-05-29T13:33:06;43.60;31.00
45137;DHT22;30894;51.740;19.498;2023-05-29T13:36:17;43.50;31.00
45137;DHT22;30894;51.740;19.498;2023-05-29T13:40:09;43.20;31.00
45137;DHT22;30894;51.740;19.498;2023-05-29T13:43:45;43.10;31.00
45137;DHT22;30894;51.740;19.498;2023-05-29T13:46:45;41.90;31.30
45137;DHT22;30894;51.740;19.498;2023-05-29T13:50:24;41.50;31.80
45137;DHT22;30894;51.740;19.498;2023-05-29T13:57:30;39.90;32.20
45137;DHT22;30894;51.740;19.498;2023-05-29T14:01:04;40.10;32.30
45137;DHT22;30894;51.740;19.498;2023-05-29T14:04:37;41.00;31.90
45137;DHT22;30894;51.740;19.498;2023-05-29T14:08:25;41.20;31.40
45137;DHT22;30894;51.740;19.498;2023-05-29T14:14:39;40.20;31.40
45137;DHT22;30894;51.740;19.498;2023-05-29T14:17:52;38.30;32.10
45137;DHT22;30894;51.740;19.498;2023-05-29T14:28:00;35.70;33.80
45137;DHT22;30894;51.740;19.498;2023-05-29T14:34:27;37.00;32.90
45137;DHT22;30894;51.740;19.498;2023-05-29T14:38:00;37.20;32.50
45137;DHT22;30894;51.740;19.498;2023-05-29T14:44:15;35.80;32.90
45137;DHT22;30894;51.740;19.498;2023-05-29T14:51:21;34.30;33.80
45137;DHT22;30894;51.740;19.498;2023-05-29T14:54:17;34.50;33.70
45137;DHT22;30894;51.740;19.498;2023-05-29T15:03:16;32.70;34.60
45137;DHT22;30894;51.740;19.498;2023-05-29T15:07:07;33.00;34.50
45137;DHT22;30894;51.740;19.498;2023-05-29T15:12:41;33.20;34.10
45137;DHT22;30894;51.740;19.498;2023-05-29T15:16:01;33.30;34.10
45137;DHT22;30894;51.740;19.498;2023-05-29T15:19:39;33.20;33.90
45137;DHT22;30894;51.740;19.498;2023-05-29T15:22:43;33.00;34.10
45137;DHT22;30894;51.740;19.498;2023-05-29T15:26:25;32.60;34.30
45137;DHT22;30894;51.740;19.498;2023-05-29T15:29:44;32.00;34.50
45137;DHT22;30894;51.740;19.498;2023-05-29T15:32:12;31.60;34.80
45137;DHT22;30894;51.740;19.498;2023-05-29T15:34:40;31.40;35.10
45137;DHT22;30894;51.740;19.498;2023-05-29T15:37:07;31.30;35.20
45137;DHT22;30894;51.740;19.498;2023-05-29T15:39:34;31.10;35.20
45137;DHT22;30894;51.740;19.498;2023-05-29T15:42:10;30.60;35.30
45137;DHT22;30894;51.740;19.498;2023-05-29T15:44:40;30.10;35.60
45137;DHT22;30894;51.740;19.498;2023-05-29T15:47:10;30.10;35.80
45137;DHT22;30894;51.740;19.498;2023-05-29T15:49:51;30.00;35.70
45137;DHT22;30894;51.740;19.498;2023-05-29T15:52:38;30.00;35.60
45137;DHT22;30894;51.740;19.498;2023-05-29T15:55:24;29.90;35.70
45137;DHT22;30894;51.740;19.498;2023-05-29T15:58:00;29.50;35.80
45137;DHT22;30894;51.740;19.498;2023-05-29T16:00:52;29.30;36.00
45137;DHT22;30894;51.740;19.498;2023-05-29T16:06:40;28.70;36.30
45137;DHT22;30894;51.740;19.498;2023-05-29T16:13:16;28.00;36.50
45137;DHT22;30894;51.740;19.498;2023-05-29T16:16:02;27.70;36.60
45137;DHT22;30894;51.740;19.498;2023-05-29T16:19:20;27.70;36.60
45137;DHT22;30894;51.740;19.498;2023-05-29T16:25:24;27.50;36.50
45137;DHT22;30894;51.740;19.498;2023-05-29T16:28:53;27.30;36.60
45137;DHT22;30894;51.740;19.498;2023-05-29T16:31:52;27.00;36.60
45137;DHT22;30894;51.740;19.498;2023-05-29T16:34:45;26.80;36.70
45137;DHT22;30894;51.740;19.498;2023-05-29T16:42:00;26.20;37.00
45137;DHT22;30894;51.740;19.498;2023-05-29T16:45:27;25.80;37.20
45137;DHT22;30894;51.740;19.498;2023-05-29T16:48:06;25.40;37.50
45137;DHT22;30894;51.740;19.498;2023-05-29T16:51:08;25.00;37.60
45137;DHT22;30894;51.740;19.498;2023-05-29T16:54:17;24.70;37.90
45137;DHT22;30894;51.740;19.498;2023-05-29T16:57:52;24.30;38.00
45137;DHT22;30894;51.740;19.498;2023-05-29T17:00:59;24.00;38.20
45137;DHT22;30894;51.740;19.498;2023-05-29T17:07:03;23.40;39.10
45137;DHT22;30894;51.740;19.498;2023-05-29T17:09:42;23.20;38.60
45137;DHT22;30894;51.740;19.498;2023-05-29T17:12:10;23.00;38.80
45137;DHT22;30894;51.740;19.498;2023-05-29T17:14:42;22.80;38.90
45137;DHT22;30894;51.740;19.498;2023-05-29T17:17:29;22.60;39.00
45137;DHT22;30894;51.740;19.498;2023-05-29T17:20:18;22.50;39.10
45137;DHT22;30894;51.740;19.498;2023-05-29T17:23:13;22.40;39.90
45137;DHT22;30894;51.740;19.498;2023-05-29T17:26:34;22.20;39.20
45137;DHT22;30894;51.740;19.498;2023-05-29T17:29:23;22.10;39.40
45137;DHT22;30894;51.740;19.498;2023-05-29T17:31:52;21.90;39.40
45137;DHT22;30894;51.740;19.498;2023-05-29T17:34:19;21.80;39.50
45137;DHT22;30894;51.740;19.498;2023-05-29T17:37:00;21.70;39.60
45137;DHT22;30894;51.740;19.498;2023-05-29T17:39:38;21.50;39.70
45137;DHT22;30894;51.740;19.498;2023-05-29T17:50:02;20.80;40.20
45137;DHT22;30894;51.740;19.498;2023-05-29T17:57:29;20.30;40.80
45137;DHT22;30894;51.740;19.498;2023-05-29T18:07:26;19.60;41.40
45137;DHT22;30894;51.740;19.498;2023-05-29T18:10:36;19.40;41.50
45137;DHT22;30894;51.740;19.498;2023-05-29T18:13:18;19.20;41.70
45137;DHT22;30894;51.740;19.498;2023-05-29T18:27:45;19.10;41.90
45137;DHT22;30894;51.740;19.498;2023-05-29T18:30:46;18.30;42.60
45137;DHT22;30894;51.740;19.498;2023-05-29T18:33:53;18.10;42.70
45137;DHT22;30894;51.740;19.498;2023-05-29T18:37:31;17.90;42.90
45137;DHT22;30894;51.740;19.498;2023-05-29T18:40:38;17.80;43.10
45137;DHT22;30894;51.740;19.498;2023-05-29T18:46:15;17.50;43.30
45137;DHT22;30894;51.740;19.498;2023-05-29T18:48:49;17.30;43.50
45137;DHT22;30894;51.740;19.498;2023-05-29T18:51:17;17.20;43.50
45137;DHT22;30894;51.740;19.498;2023-05-29T18:53:47;17.10;43.50
45137;DHT22;30894;51.740;19.498;2023-05-29T18:56:15;17.00;43.70
45137;DHT22;30894;51.740;19.498;2023-05-29T18:58:50;16.90;43.80
45137;DHT22;30894;51.740;19.498;2023-05-29T19:01:17;16.80;43.90
45137;DHT22;30894;51.740;19.498;2023-05-29T19:03:44;16.80;44.00
45137;DHT22;30894;51.740;19.498;2023-05-29T19:06:13;16.70;44.10
45137;DHT22;30894;51.740;19.498;2023-05-29T19:08:51;16.60;44.20
45137;DHT22;30894;51.740;19.498;2023-05-29T19:11:21;16.50;44.20
45137;DHT22;30894;51.740;19.498;2023-05-29T19:13:58;16.40;44.30
45137;DHT22;30894;51.740;19.498;2023-05-29T19:16:27;16.40;44.50
45137;DHT22;30894;51.740;19.498;2023-05-29T19:19:19;16.30;44.60
45137;DHT22;30894;51.740;19.498;2023-05-29T19:21:54;16.20;44.70
45137;DHT22;30894;51.740;19.498;2023-05-29T19:24:38;16.10;44.70
45137;DHT22;30894;51.740;19.498;2023-05-29T19:27:23;16.10;44.80
45137;DHT22;30894;51.740;19.498;2023-05-29T19:29:55;16.00;44.90
45137;DHT22;30894;51.740;19.498;2023-05-29T19:32:36;15.90;44.90
45137;DHT22;30894;51.740;19.498;2023-05-29T19:35:11;15.90;45.10
45137;DHT22;30894;51.740;19.498;2023-05-29T19:37:43;15.80;45.10
45137;DHT22;30894;51.740;19.498;2023-05-29T19:40:21;15.70;45.20
45137;DHT22;30894;51.740;19.498;2023-05-29T19:42:50;15.70;45.30
45137;DHT22;30894;51.740;19.498;2023-05-29T19:45:21;15.60;45.40
45137;DHT22;30894;51.740;19.498;2023-05-29T19:47:49;15.50;45.50
45137;DHT22;30894;51.740;19.498;2023-05-29T19:50:18;15.50;45.60
45137;DHT22;30894;51.740;19.498;2023-05-29T19:52:52;15.40;45.70
45137;DHT22;30894;51.740;19.498;2023-05-29T20:05:18;15.40;45.80
45137;DHT22;30894;51.740;19.498;2023-05-29T20:12:01;15.50;45.70
45137;DHT22;30894;51.740;19.498;2023-05-29T20:14:56;15.50;45.60
45137;DHT22;30894;51.740;19.498;2023-05-29T20:17:48;15.50;45.60
45137;DHT22;30894;51.740;19.498;2023-05-29T20:24:05;15.60;45.50
45137;DHT22;30894;51.740;19.498;2023-05-29T20:27:09;15.60;45.60
45137;DHT22;30894;51.740;19.498;2023-05-29T20:30:48;15.70;45.60
45137;DHT22;30894;51.740;19.498;2023-05-29T20:34:02;15.70;45.60
45137;DHT22;30894;51.740;19.498;2023-05-29T20:36:55;15.70;45.60
45137;DHT22;30894;51.740;19.498;2023-05-29T20:40:05;15.70;45.70
45137;DHT22;30894;51.740;19.498;2023-05-29T20:43:35;15.60;45.70
45137;DHT22;30894;51.740;19.498;2023-05-29T20:46:58;15.60;45.90
45137;DHT22;30894;51.740;19.498;2023-05-29T20:49:55;15.50;45.90
45137;DHT22;30894;51.740;19.498;2023-05-29T20:53:26;15.50;46.10
45137;DHT22;30894;51.740;19.498;2023-05-29T20:56:47;15.40;46.20
45137;DHT22;30894;51.740;19.498;2023-05-29T21:00:17;15.30;46.30
45137;DHT22;30894;51.740;19.498;2023-05-29T21:03:23;15.20;46.40
45137;DHT22;30894;51.740;19.498;2023-05-29T21:06:41;15.20;46.50
45137;DHT22;30894;51.740;19.498;2023-05-29T21:09:42;15.10;46.60
45137;DHT22;30894;51.740;19.498;2023-05-29T21:13:12;15.10;46.70
45137;DHT22;30894;51.740;19.498;2023-05-29T21:20:36;15.00;47.00
45137;DHT22;30894;51.740;19.498;2023-05-29T21:24:38;14.90;47.10
45137;DHT22;30894;51.740;19.498;2023-05-29T21:28:18;14.90;47.30
45137;DHT22;30894;51.740;19.498;2023-05-29T21:31:35;14.90;47.30
45137;DHT22;30894;51.740;19.498;2023-05-29T21:34:59;14.90;47.80
45137;DHT22;30894;51.740;19.498;2023-05-29T21:37:28;14.90;47.30
45137;DHT22;30894;51.740;19.498;2023-05-29T21:40:26;14.90;47.30
45137;DHT22;30894;51.740;19.498;2023-05-29T21:47:34;14.90;47.40
45137;DHT22;30894;51.740;19.498;2023-05-29T21:50:47;15.00;47.50
45137;DHT22;30894;51.740;19.498;2023-05-29T21:54:21;15.00;47.50
45137;DHT22;30894;51.740;19.498;2023-05-29T21:57:34;15.00;47.40
45137;DHT22;30894;51.740;19.498;2023-05-29T22:00:40;15.00;47.50
45137;DHT22;30894;51.740;19.498;2023-05-29T22:07:56;15.00;47.60
45137;DHT22;30894;51.740;19.498;2023-05-29T22:10:53;15.00;47.70
45137;DHT22;30894;51.740;19.498;2023-05-29T22:13:25;14.90;47.60
45137;DHT22;30894;51.740;19.498;2023-05-29T22:15:58;14.90;47.80
45137;DHT22;30894;51.740;19.498;2023-05-29T22:23:03;14.90;48.00
45137;DHT22;30894;51.740;19.498;2023-05-29T22:25:35;14.90;48.00
45137;DHT22;30894;51.740;19.498;2023-05-29T22:28:06;14.80;48.10
45137;DHT22;30894;51.740;19.498;2023-05-29T22:30:34;14.70;48.10
45137;DHT22;30894;51.740;19.498;2023-05-29T22:33:03;14.70;48.30
45137;DHT22;30894;51.740;19.498;2023-05-29T22:35:44;14.70;48.40
45137;DHT22;30894;51.740;19.498;2023-05-29T22:38:59;14.60;48.60
45137;DHT22;30894;51.740;19.498;2023-05-29T22:41:30;14.50;48.70
45137;DHT22;30894;51.740;19.498;2023-05-29T22:47:59;14.40;49.00
45137;DHT22;30894;51.740;19.498;2023-05-29T22:54:24;14.30;49.10
45137;DHT22;30894;51.740;19.498;2023-05-29T22:57:02;14.20;49.10
45137;DHT22;30894;51.740;19.498;2023-05-29T23:00:40;14.20;49.30
45137;DHT22;30894;51.740;19.498;2023-05-29T23:03:34;14.20;49.40
45137;DHT22;30894;51.740;19.498;2023-05-29T23:06:35;14.20;49.50
45137;DHT22;30894;51.740;19.498;2023-05-29T23:09:39;14.20;49.60
45137;DHT22;30894;51.740;19.498;2023-05-29T23:12:11;14.20;49.60
45137;DHT22;30894;51.740;19.498;2023-05-29T23:14:51;14.20;49.50
45137;DHT22;30894;51.740;19.498;2023-05-29T23:21:30;14.20;49.60
45137;DHT22;30894;51.740;19.498;2023-05-29T23:24:37;14.20;49.80
45137;DHT22;30894;51.740;19.498;2023-05-29T23:27:30;14.20;49.80
45137;DHT22;30894;51.740;19.498;2023-05-29T23:33:38;14.10;50.00
45137;DHT22;30894;51.740;19.498;2023-05-29T23:36:25;14.10;50.10
45137;DHT22;30894;51.740;19.498;2023-05-29T23:39:57;14.00;50.10
45137;DHT22;30894;51.740;19.498;2023-05-29T23:42:50;14.00;50.20
45137;DHT22;30894;51.740;19.498;2023-05-29T23:45:16;14.00;50.20
45137;DHT22;30894;51.740;19.498;2023-05-29T23:47:42;13.90;50.40
45137;DHT22;30894;51.740;19.498;2023-05-29T23:50:11;13.90;50.50
45137;DHT22;30894;51.740;19.498;2023-05-29T23:52:42;13.80;50.60
45137;DHT22;30894;51.740;19.498;2023-05-29T23:55:09;13.70;50.70
45137;DHT22;30894;51.740;19.498;2023-05-29T23:57:39;13.80;50.90
